Time;durP1;ratioP1;P1;durP2;ratioP2;P2;SDS_P1;SDS_P2;PMS_P1;PMS_P2;Temp;Humidity;BMP_temperature;BMP_pressure;BME280_temperature;BME280_humidity;BME280_pressure;Samples;Min_cycle;Max_cycle;Signal;HPM_P1;HPM_P2
2021/03/28 00:01:24;;;;;;;4.57;2.10;;;;;;;5.75;61.21;100096.97;5042628;28;20598;-72
2021/03/28 00:03:55;;;;;;;10.57;2.85;;;;;;;5.79;61.52;100099.25;5045986;28;20029;-72
2021/03/28 00:06:32;;;;;;;7.35;2.45;;;;;;;5.65;61.74;100084.38;5040517;28;20032;-72
2021/03/28 00:09:12;;;;;;;6.20;2.65;;;;;;;5.81;61.43;100099.09;5047595;28;20044;-72
2021/03/28 00:11:54;;;;;;;7.65;2.78;;;;;;;5.77;62.02;100092.31;5040724;28;20083;-72
2021/03/28 00:14:48;;;;;;;4.95;2.00;;;;;;;5.67;61.68;100108.41;5045168;28;20032;-72
2021/03/28 00:17:19;;;;;;;9.23;2.08;;;;;;;5.60;61.85;100102.72;5051085;28;20035;-72
2021/03/28 00:20:08;;;;;;;8.38;2.03;;;;;;;5.40;62.46;100109.09;5044523;28;20588;-72
2021/03/28 00:22:35;;;;;;;;;;;;;;;5.26;63.55;100112.97;5042575;28;20131;-72
2021/03/28 00:25:12;;;;;;;7.40;2.38;;;;;;;5.18;63.20;100105.63;5050457;28;19916;-72
2021/03/28 00:27:43;;;;;;;8.57;2.20;;;;;;;5.05;63.75;100100.50;5051289;28;20075;-72
2021/03/28 00:30:24;;;;;;;6.00;2.05;;;;;;;4.98;64.92;100110.09;5047140;28;20028;-72
2021/03/28 00:32:57;;;;;;;6.03;1.88;;;;;;;4.88;64.70;100098.47;5034490;28;20080;-72
2021/03/28 00:35:28;;;;;;;4.57;1.90;;;;;;;4.74;65.21;100088.09;5050322;28;20102;-73
2021/03/28 00:38:12;;;;;;;8.65;2.22;;;;;;;4.71;65.26;100104.44;5051566;28;20044;-72
2021/03/28 00:40:39;;;;;;;4.55;2.15;;;;;;;4.73;65.29;100105.16;5033341;28;20025;-72
2021/03/28 00:43:13;;;;;;;9.30;2.28;;;;;;;4.60;65.41;100103.53;5042689;28;20478;-72
2021/03/28 00:45:42;;;;;;;10.07;2.30;;;;;;;4.55;66.02;100105.78;5044398;28;20394;-73
2021/03/28 00:48:16;;;;;;;10.68;2.20;;;;;;;4.43;66.05;100096.13;5051279;28;20028;-72
2021/03/28 00:50:48;;;;;;;7.10;2.42;;;;;;;4.32;66.58;100096.19;5054509;28;20112;-72
2021/03/28 00:53:29;;;;;;;6.18;2.10;;;;;;;4.11;66.76;100086.34;5054378;28;20021;-73
2021/03/28 00:56:01;;;;;;;8.65;2.38;;;;;;;4.18;66.98;100108.09;5050498;28;20108;-72
2021/03/28 00:58:44;;;;;;;7.00;2.20;;;;;;;4.11;67.50;100096.19;5054701;28;20037;-72
2021/03/28 01:01:24;;;;;;;10.43;2.80;;;;;;;4.14;67.78;100095.94;5037414;28;20552;-72
2021/03/28 01:04:24;;;;;;;11.10;3.22;;;;;;;4.25;68.49;100105.75;5048585;28;20032;-72
2021/03/28 01:06:56;;;;;;;9.43;3.25;;;;;;;4.12;68.93;100103.25;5043022;28;20066;-72
2021/03/28 01:09:50;;;;;;;12.02;3.78;;;;;;;4.23;69.29;100095.16;5044011;28;20033;-72
2021/03/28 01:12:57;;;;;;;8.05;3.65;;;;;;;4.14;69.70;100096.78;5031320;28;20112;-72
2021/03/28 01:15:59;;;;;;;13.93;3.47;;;;;;;3.95;70.45;100092.13;5037420;28;20033;-72
2021/03/28 01:18:40;;;;;;;8.93;2.60;;;;;;;3.84;70.63;100092.19;5039033;28;20033;-72
2021/03/28 01:21:41;;;;;;;7.50;2.60;;;;;;;3.69;70.88;100088.09;5044784;28;20021;-72
2021/03/28 01:24:43;;;;;;;6.82;2.47;;;;;;;3.64;71.42;100091.19;5043843;28;20029;-72
2021/03/28 01:27:29;;;;;;;5.55;2.45;;;;;;;3.56;71.32;100096.31;5048585;28;20056;-72
2021/03/28 01:30:12;;;;;;;7.25;2.65;;;;;;;3.76;70.17;100097.34;5033975;28;20126;-72
2021/03/28 01:32:43;;;;;;;8.15;2.22;;;;;;;3.82;70.28;100080.75;5044814;28;20474;-72
2021/03/28 01:35:11;;;;;;;6.30;2.28;;;;;;;3.92;70.05;100097.75;5050450;28;20817;-72
2021/03/28 01:38:02;;;;;;;5.18;2.50;;;;;;;3.87;70.72;100099.94;5037549;28;20021;-72
2021/03/28 01:40:49;;;;;;;5.93;2.38;;;;;;;4.11;69.65;100090.84;5039782;28;20033;-72
2021/03/28 01:43:35;;;;;;;10.15;2.60;;;;;;;4.15;69.27;100089.59;5048645;28;20083;-72
2021/03/28 01:46:19;;;;;;;6.30;2.00;;;;;;;4.14;69.80;100099.47;5045552;28;20568;-72
2021/03/28 01:48:59;;;;;;;6.28;2.28;;;;;;;4.10;70.03;100071.25;5046779;28;20850;-72
2021/03/28 01:51:52;;;;;;;7.55;2.03;;;;;;;4.31;68.84;100099.84;5040675;28;20490;-72
2021/03/28 01:54:30;;;;;;;8.07;2.10;;;;;;;4.49;68.10;100100.97;5049591;28;20390;-72
2021/03/28 01:57:02;;;;;;;14.32;1.90;;;;;;;4.68;67.08;100104.72;5045305;28;20030;-72
2021/03/28 01:59:51;;;;;;;9.07;2.10;;;;;;;4.72;66.75;100103.47;5043583;28;20041;-72
2021/03/28 02:02:38;;;;;;;6.82;2.03;;;;;;;4.76;67.20;100104.91;5030248;28;20021;-72
2021/03/28 02:05:28;;;;;;;5.60;2.05;;;;;;;4.70;67.00;100105.44;5030496;28;20124;-72
2021/03/28 02:07:59;;;;;;;11.52;2.38;;;;;;;4.81;65.83;100103.50;5055622;28;20534;-71
2021/03/28 02:10:44;;;;;;;18.48;4.93;;;;;;;4.86;66.24;100089.69;5045785;28;20029;-72
2021/03/28 02:13:34;;;;;;;13.77;4.80;;;;;;;4.87;66.19;100098.59;5050047;28;20028;-72
2021/03/28 02:16:15;;;;;;;23.88;7.75;;;;;;;4.86;66.24;100103.09;5029453;28;20116;-72
2021/03/28 02:19:02;;;;;;;15.27;4.25;;;;;;;4.92;65.76;100097.19;5041803;28;20033;-72
2021/03/28 02:21:33;;;;;;;14.88;5.43;;;;;;;4.95;65.82;100102.31;5048983;28;20109;-72
2021/03/28 02:24:09;;;;;;;36.85;10.13;;;;;;;4.91;65.87;100086.63;5049384;28;20104;-72
2021/03/28 02:27:05;;;;;;;63.17;17.23;;;;;;;4.91;65.60;100092.81;5049535;28;20033;-72
2021/03/28 02:29:46;;;;;;;12.73;3.85;;;;;;;4.86;66.25;100095.06;5047721;28;20029;-72
2021/03/28 02:32:33;;;;;;;10.93;2.15;;;;;;;4.80;66.48;100095.63;5039459;28;20025;-72
2021/03/28 02:35:16;;;;;;;9.23;2.72;;;;;;;4.99;65.76;100087.63;5046742;28;20042;-72
2021/03/28 02:38:06;;;;;;;9.55;3.85;;;;;;;4.93;66.22;100085.50;5049553;28;20060;-72
2021/03/28 02:40:31;;;;;;;;;;;;;;;4.86;66.25;100095.06;5047362;28;20061;-72
2021/03/28 02:43:21;;;;;;;9.95;3.05;;;;;;;4.83;66.27;100090.81;5048918;28;20656;-72
2021/03/28 02:46:04;;;;;;;7.80;2.55;;;;;;;4.75;66.42;100079.94;5045122;28;20358;-72
2021/03/28 02:48:59;;;;;;;14.23;2.33;;;;;;;4.79;66.68;100085.84;5049367;28;20031;-72
2021/03/28 02:51:55;;;;;;;9.63;2.33;;;;;;;4.84;66.97;100088.97;5014618;28;20591;-72
2021/03/28 02:54:38;;;;;;;12.63;2.63;;;;;;;4.88;65.96;100085.06;5046730;28;20116;-72
2021/03/28 02:57:03;;;;;;;5.97;2.15;;;;;;;4.88;65.66;100100.31;5049142;28;20478;-73
2021/03/28 02:59:50;;;;;;;6.95;1.60;;;;;;;4.87;66.26;100094.06;5043970;28;20103;-72
2021/03/28 03:02:34;;;;;;;7.07;1.75;;;;;;;4.88;65.91;100095.78;5049020;28;20036;-72
2021/03/28 03:05:24;;;;;;;7.35;1.65;;;;;;;4.92;65.63;100101.72;5048490;28;20036;-72
2021/03/28 03:08:00;;;;;;;4.30;1.52;;;;;;;4.88;66.65;100098.47;5063563;28;20027;-72
2021/03/28 03:10:46;;;;;;;5.90;1.52;;;;;;;4.91;66.04;100095.50;5033983;28;20021;-72
2021/03/28 03:13:27;;;;;;;9.00;1.70;;;;;;;4.94;65.66;100097.91;5035040;28;20013;-72
2021/03/28 03:16:00;;;;;;;7.55;2.03;;;;;;;5.01;65.75;100095.56;5048740;28;20025;-72
2021/03/28 03:18:44;;;;;;;4.30;1.48;;;;;;;4.97;66.13;100100.31;5047696;28;20025;-72
2021/03/28 03:21:27;;;;;;;7.45;1.48;;;;;;;5.11;65.65;100091.06;5030275;28;20033;-72
2021/03/28 03:24:02;;;;;;;9.45;1.90;;;;;;;5.05;66.41;100103.16;5030297;28;20025;-72
2021/03/28 03:27:00;;;;;;;9.23;2.28;;;;;;;4.99;66.69;100079.59;5029650;28;20841;-72
2021/03/28 03:29:51;;;;;;;4.97;1.83;;;;;;;5.09;66.63;100097.56;5045736;28;20494;-72
2021/03/28 03:32:36;;;;;;;6.40;1.70;;;;;;;5.12;66.32;100097.28;5036890;28;20039;-72
2021/03/28 03:35:29;;;;;;;3.55;1.67;;;;;;;5.17;66.37;100105.78;5049292;28;20032;-72
2021/03/28 03:38:06;;;;;;;4.72;1.38;;;;;;;5.12;66.31;100102.66;5040613;28;20429;-72
2021/03/28 03:40:50;;;;;;;3.97;1.75;;;;;;;5.16;66.48;100115.66;5042872;28;20505;-73
2021/03/28 03:43:37;;;;;;;5.90;1.65;;;;;;;5.17;66.95;100105.78;5042735;28;20037;-72
2021/03/28 03:46:31;;;;;;;5.47;1.60;;;;;;;5.26;66.57;100115.66;5049480;28;20074;-72
2021/03/28 03:49:21;;;;;;;4.85;1.50;;;;;;;5.19;66.32;100117.22;5044145;28;20033;-72
2021/03/28 03:52:00;;;;;;;6.72;1.90;;;;;;;5.22;65.74;100116.94;5041260;28;20025;-72
2021/03/28 03:54:46;;;;;;;4.50;1.40;;;;;;;5.22;64.79;100119.63;5058074;28;20082;-72
2021/03/28 03:57:35;;;;;;;5.60;1.45;;;;;;;5.25;65.23;100124.72;5047286;28;20021;-72
2021/03/28 04:00:25;;;;;;;8.65;2.10;;;;;;;5.29;65.08;100120.75;5029792;28;20520;-72
2021/03/28 04:02:53;;;;;;;4.35;1.17;;;;;;;5.41;65.15;100119.66;5042303;28;20395;-72
2021/03/28 04:05:34;;;;;;;4.27;1.67;;;;;;;5.52;64.93;100124.06;5029401;28;20026;-72
2021/03/28 04:08:24;;;;;;;5.63;1.52;;;;;;;5.57;64.82;100118.28;5038222;28;20086;-72
2021/03/28 04:11:44;;;;;;;6.55;2.10;;;;;;;5.41;65.19;100092.81;5049120;28;20116;-72
2021/03/28 04:14:21;;;;;;;;;;;;;;;5.47;65.24;100115.56;5026897;28;20033;-72
2021/03/28 04:17:21;;;;;;;3.88;1.58;;;;;;;5.60;67.16;100112.63;5042525;28;19960;-72
2021/03/28 04:20:07;;;;;;;5.93;2.05;;;;;;;5.65;67.10;100111.22;5045939;28;20051;-72
2021/03/28 04:22:57;;;;;;;9.48;1.60;;;;;;;5.48;67.15;100103.88;5046621;28;20449;-72
2021/03/28 04:25:42;;;;;;;8.15;1.75;;;;;;;5.46;65.55;100112.03;5053806;28;20068;-72
2021/03/28 04:28:37;;;;;;;6.97;1.50;;;;;;;5.43;65.55;100111.50;5053586;28;20024;-72
2021/03/28 04:31:32;;;;;;;8.40;1.52;;;;;;;5.34;66.61;100109.63;5052895;28;20021;-72
2021/03/28 04:34:14;;;;;;;10.35;1.83;;;;;;;5.29;67.73;100118.06;5040937;28;20049;-72
2021/03/28 04:37:03;;;;;;;7.65;1.50;;;;;;;5.15;67.94;100119.31;5050496;28;20917;-72
2021/03/28 04:39:55;;;;;;;11.50;1.77;;;;;;;5.21;67.55;100120.59;5052769;28;20564;-72
2021/03/28 04:42:26;;;;;;;6.97;1.42;;;;;;;5.26;67.10;100137.13;5038012;28;20749;-72
2021/03/28 04:45:00;;;;;;;7.10;1.73;;;;;;;5.21;67.36;100144.75;5046902;28;20060;-72
2021/03/28 04:48:03;;;;;;;6.00;1.50;;;;;;;5.20;67.02;100143.06;5052660;28;20055;-72
2021/03/28 04:50:49;;;;;;;3.97;1.15;;;;;;;5.22;65.60;100131.19;5050997;28;20032;-72
2021/03/28 04:53:49;;;;;;;6.07;1.60;;;;;;;5.31;65.16;100123.31;5052663;28;20471;-72
2021/03/28 04:56:39;;;;;;;7.97;1.65;;;;;;;5.33;65.19;100132.91;5052180;28;20033;-72
2021/03/28 04:59:23;;;;;;;7.40;1.75;;;;;;;5.51;65.42;100132.28;5041195;28;20036;-72
2021/03/28 05:02:03;;;;;;;5.10;2.38;;;;;;;5.53;66.47;100138.31;5052333;28;20027;-73
2021/03/28 05:05:21;;;;;;;3.55;1.88;;;;;;;5.37;67.12;100139.72;5049123;28;20057;-72
2021/03/28 05:08:05;;;;;;;9.95;2.05;;;;;;;5.32;67.77;100141.97;5052983;28;20028;-72
2021/03/28 05:11:11;;;;;;;3.35;1.35;;;;;;;5.35;66.43;100136.31;5052318;28;20020;-72
2021/03/28 05:14:07;;;;;;;6.32;1.90;;;;;;;5.37;66.58;100138.84;5033414;28;20442;-72
2021/03/28 05:17:11;;;;;;;8.10;1.50;;;;;;;5.33;66.17;100124.88;5049274;28;20112;-73
2021/03/28 05:19:55;;;;;;;7.70;2.45;;;;;;;5.27;66.74;100134.31;5051284;28;20032;-72
2021/03/28 05:22:36;;;;;;;4.45;1.48;;;;;;;5.14;67.00;100138.25;5035438;28;20017;-72
2021/03/28 05:25:26;;;;;;;4.97;1.55;;;;;;;5.15;66.17;100135.41;5049301;28;20043;-73
2021/03/28 05:28:43;;;;;;;9.32;1.50;;;;;;;5.03;66.69;100132.00;5051958;28;20075;-72
2021/03/28 05:31:36;;;;;;;6.90;1.48;;;;;;;5.13;65.87;100128.47;5052103;28;20483;-72
2021/03/28 05:34:39;;;;;;;5.32;1.23;;;;;;;5.04;66.11;100140.88;5038586;28;20028;-72
2021/03/28 05:37:33;;;;;;;4.53;1.35;;;;;;;4.93;66.72;100128.41;5038752;28;20553;-72
2021/03/28 05:40:08;;;;;;;9.05;1.60;;;;;;;4.99;66.86;100153.84;5045288;28;20033;-75
2021/03/28 05:43:09;;;;;;;6.32;1.50;;;;;;;5.20;67.05;100153.78;5041185;28;20023;-75
2021/03/28 05:45:53;;;;;;;8.55;1.52;;;;;;;5.81;64.94;100161.69;5036745;28;20116;-73
2021/03/28 05:48:34;;;;;;;6.55;1.98;;;;;;;6.70;62.84;100148.09;5043636;28;20479;-76
2021/03/28 05:53:13;;;;;;;3.80;1.20;;;;;;;7.33;60.25;100151.97;5092300;27;20934;-69
2021/03/28 05:55:47;;;;;;;8.25;1.65;;;;;;;8.62;56.69;100158.00;5080757;28;20046;-72
2021/03/28 05:58:34;;;;;;;3.63;1.42;;;;;;;9.96;53.52;100161.00;5093879;28;20481;-71
2021/03/28 06:01:25;;;;;;;6.78;1.50;;;;;;;9.69;53.62;100160.22;5078697;28;20040;-72
2021/03/28 06:04:17;;;;;;;6.72;1.70;;;;;;;9.44;53.50;100160.16;5084476;28;20052;-73
2021/03/28 06:07:32;;;;;;;4.50;1.52;;;;;;;9.59;53.72;100151.44;5088238;28;20048;-70
2021/03/28 06:10:16;;;;;;;8.82;1.85;;;;;;;10.78;50.48;100150.22;5085019;28;20059;-72
2021/03/28 06:13:06;;;;;;;5.68;1.90;;;;;;;11.15;49.56;100164.00;5079915;28;20089;-74
2021/03/28 06:19:13;;;;;;;7.43;1.70;;;;;;;12.54;45.29;100158.84;5793834;22;20077;-67
2021/03/28 06:21:50;;;;;;;5.72;1.58;;;;;;;12.28;45.88;100165.50;5038898;28;20033;-67
2021/03/28 06:24:45;;;;;;;6.35;1.83;;;;;;;13.37;44.36;100166.84;5049124;28;20041;-68
2021/03/28 06:27:31;;;;;;;7.97;1.65;;;;;;;14.32;42.46;100156.03;5052594;28;20140;-69
2021/03/28 06:30:16;;;;;;;7.55;2.10;;;;;;;15.42;40.41;100149.97;5050296;28;20022;-69
2021/03/28 06:33:10;;;;;;;7.63;2.08;;;;;;;15.03;41.02;100156.88;5053577;28;20116;-68
2021/03/28 06:35:47;;;;;;;4.97;1.67;;;;;;;16.19;38.73;100153.41;5050440;28;20970;-67
2021/03/28 06:38:55;;;;;;;4.30;1.50;;;;;;;15.59;39.12;100155.94;5056069;28;20029;-68
2021/03/28 06:41:40;;;;;;;6.03;1.67;;;;;;;15.93;39.07;100157.78;5048859;28;20440;-73
2021/03/28 06:44:33;;;;;;;4.72;1.80;;;;;;;16.83;37.36;100155.63;5054294;28;20303;-74
2021/03/28 06:47:01;;;;;;;6.07;1.75;;;;;;;15.75;38.62;100168.44;5053173;28;20543;-70
2021/03/28 06:49:48;;;;;;;5.43;1.40;;;;;;;15.21;39.39;100174.59;5052113;28;20028;-72
2021/03/28 06:52:45;;;;;;;7.93;1.65;;;;;;;14.38;40.97;100166.13;5058126;28;20037;-75
2021/03/28 06:55:37;;;;;;;8.65;1.63;;;;;;;14.09;42.07;100170.66;5053437;28;20025;-71
2021/03/28 06:58:09;;;;;;;5.72;1.80;;;;;;;14.29;41.45;100172.75;5055589;28;20057;-72
2021/03/28 07:00:48;;;;;;;9.75;2.03;;;;;;;14.43;41.63;100178.13;5054274;28;20029;-70
2021/03/28 07:03:48;;;;;;;8.63;2.20;;;;;;;12.78;44.57;100176.78;5042318;28;20036;-71
2021/03/28 07:06:34;;;;;;;3.97;1.58;;;;;;;11.60;47.12;100181.44;5038552;28;20037;-70
2021/03/28 07:09:19;;;;;;;4.93;1.70;;;;;;;11.24;47.01;100172.09;5038065;28;20025;-70
2021/03/28 07:11:52;;;;;;;3.47;1.50;;;;;;;11.37;47.11;100189.53;5040283;28;20041;-70
2021/03/28 07:14:42;;;;;;;6.40;1.67;;;;;;;11.13;47.74;100184.16;5040073;28;20084;-72
2021/03/28 07:17:13;;;;;;;7.10;2.00;;;;;;;11.08;47.79;100198.25;5040735;28;20394;-70
2021/03/28 07:19:57;;;;;;;7.43;1.60;;;;;;;11.47;46.98;100200.13;5034303;28;20664;-71
2021/03/28 07:23:04;;;;;;;5.60;1.40;;;;;;;11.55;47.42;100208.28;5039565;28;20682;-71
2021/03/28 07:25:49;;;;;;;5.68;1.63;;;;;;;11.32;47.62;100205.47;5022314;28;20039;-69
2021/03/28 07:28:36;;;;;;;5.32;1.85;;;;;;;12.54;44.44;100202.28;5040039;28;20025;-71
2021/03/28 07:31:27;;;;;;;6.50;1.60;;;;;;;12.17;45.80;100199.31;5033359;28;20080;-70
2021/03/28 07:34:01;;;;;;;6.30;1.50;;;;;;;13.03;44.02;100199.16;5051142;28;20036;-76
2021/03/28 07:36:51;;;;;;;6.65;1.48;;;;;;;14.16;41.84;100198.81;5040157;28;20036;-73
2021/03/28 07:40:04;;;;;;;8.65;2.00;;;;;;;14.77;40.88;100192.09;5039183;28;20032;-69
2021/03/28 07:42:37;;;;;;;5.63;1.55;;;;;;;13.47;42.63;100187.50;5011297;28;20040;-71
2021/03/28 07:45:24;;;;;;;8.90;1.80;;;;;;;13.34;43.53;100180.84;5047649;28;20032;-69
2021/03/28 07:48:11;;;;;;;5.85;1.20;;;;;;;12.54;44.87;100188.72;5050419;28;20057;-70
2021/03/28 07:50:45;;;;;;;8.70;1.70;;;;;;;12.33;45.63;100194.81;5029130;28;20444;-70
2021/03/28 07:53:52;;;;;;;6.85;1.85;;;;;;;11.31;47.83;100209.16;5034290;28;20033;-72
2021/03/28 07:56:38;;;;;;;7.18;1.77;;;;;;;11.44;48.04;100208.63;5017344;28;20040;-70
2021/03/28 07:59:15;;;;;;;6.30;1.80;;;;;;;12.12;47.55;100223.44;5032043;28;20037;-71
2021/03/28 08:02:18;;;;;;;8.30;1.52;;;;;;;13.18;44.70;100231.75;5034957;28;20033;-70
2021/03/28 08:05:14;;;;;;;4.93;1.20;;;;;;;14.34;41.89;100216.59;5035075;28;20047;-70
2021/03/28 08:07:54;;;;;;;9.18;1.60;;;;;;;13.67;43.02;100229.38;5037958;28;20032;-70
2021/03/28 08:10:22;;;;;;;8.90;2.17;;;;;;;12.81;45.14;100230.75;5039682;28;20060;-70
2021/03/28 08:13:25;;;;;;;11.55;1.67;;;;;;;12.13;46.10;100230.56;5034916;28;20144;-71
2021/03/28 08:16:02;;;;;;;8.45;1.70;;;;;;;11.62;47.15;100233.63;5034893;28;20128;-74
2021/03/28 08:18:53;;;;;;;6.88;1.50;;;;;;;12.97;45.09;100238.78;5036606;28;20025;-71
2021/03/28 08:21:27;;;;;;;8.52;1.92;;;;;;;16.18;39.70;100242.69;5038502;28;20469;-75
2021/03/28 08:24:05;;;;;;;7.40;2.00;;;;;;;18.97;34.95;100243.25;5039430;28;20025;-74
2021/03/28 08:27:08;;;;;;;7.63;1.73;;;;;;;21.36;31.29;100234.72;5040176;28;20029;-74
2021/03/28 08:29:45;;;;;;;6.10;2.08;;;;;;;22.28;30.16;100231.25;5036206;28;20039;-73
2021/03/28 08:32:31;;;;;;;5.85;1.67;;;;;;;21.23;31.85;100235.78;5042320;28;20022;-73
2021/03/28 08:35:19;;;;;;;8.20;1.58;;;;;;;21.47;31.27;100238.59;5035219;28;20024;-73
2021/03/28 08:38:08;;;;;;;7.68;1.90;;;;;;;22.22;29.66;100235.00;5037504;28;20112;-73
2021/03/28 08:40:47;;;;;;;;;;;;;;;22.09;30.35;100241.59;5041304;28;20529;-74
2021/03/28 08:43:31;;;;;;;9.60;2.13;;;;;;;21.94;30.51;100237.69;5035871;28;19921;-74
2021/03/28 08:46:45;;;;;;;5.45;1.70;;;;;;;21.04;31.53;100238.88;5040499;28;20768;-74
2021/03/28 08:49:27;;;;;;;4.13;1.23;;;;;;;21.88;30.48;100240.34;5039013;28;20033;-74
2021/03/28 08:52:47;;;;;;;7.53;2.15;;;;;;;22.74;29.28;100247.84;5037654;28;20045;-74
2021/03/28 08:55:43;;;;;;;7.45;2.40;;;;;;;22.62;29.26;100234.13;5005386;28;20615;-74
2021/03/28 08:58:26;;;;;;;6.70;1.67;;;;;;;23.81;28.41;100221.97;5034345;28;20064;-75
2021/03/28 09:01:03;;;;;;;4.85;1.73;;;;;;;23.81;28.79;100216.44;5037753;28;20666;-71
2021/03/28 09:04:00;;;;;;;4.60;1.75;;;;;;;23.11;29.03;100233.63;5036575;28;20100;-71
2021/03/28 09:06:35;;;;;;;6.40;1.80;;;;;;;23.02;29.24;100216.63;5039332;28;20028;-71
2021/03/28 09:09:08;;;;;;;8.63;1.92;;;;;;;23.21;29.13;100222.72;5039460;28;20041;-71
2021/03/28 09:11:59;;;;;;;5.80;1.52;;;;;;;23.56;28.79;100216.91;5034752;28;20033;-74
2021/03/28 09:14:49;;;;;;;6.50;1.33;;;;;;;23.80;28.61;100223.06;5034788;28;20040;-73
2021/03/28 09:17:51;;;;;;;7.28;1.60;;;;;;;23.25;28.88;100228.59;5033752;28;20029;-73
2021/03/28 09:20:48;;;;;;;6.75;1.73;;;;;;;23.28;29.39;100220.63;5038328;28;20116;-73
2021/03/28 09:23:32;;;;;;;6.90;1.75;;;;;;;22.87;29.72;100225.47;5036537;28;20040;-74
2021/03/28 09:26:03;;;;;;;5.85;1.70;;;;;;;23.18;28.51;100214.94;5036035;28;20071;-73
2021/03/28 09:28:39;;;;;;;9.15;1.77;;;;;;;21.58;30.38;100201.94;5028175;28;20079;-73
2021/03/28 09:31:11;;;;;;;7.45;1.80;;;;;;;19.26;33.62;100212.38;5037397;28;20033;-71
2021/03/28 09:34:01;;;;;;;7.78;1.60;;;;;;;20.18;33.10;100208.00;5029594;28;20025;-75
2021/03/28 09:36:31;;;;;;;4.70;1.40;;;;;;;21.21;31.38;100202.16;5047456;28;20025;-74
2021/03/28 09:39:18;;;;;;;7.05;1.70;;;;;;;21.17;31.23;100198.22;5036942;28;20494;-74
2021/03/28 09:42:28;;;;;;;5.50;1.85;;;;;;;21.97;30.12;100196.69;5037414;28;20450;-73
2021/03/28 09:44:53;;;;;;;5.60;1.63;;;;;;;21.26;31.23;100197.88;5023097;28;20038;-70
2021/03/28 09:47:25;;;;;;;7.30;1.70;;;;;;;21.63;30.80;100195.69;5032980;28;20036;-70
2021/03/28 09:50:01;;;;;;;5.55;1.50;;;;;;;22.38;28.99;100196.72;5007532;28;20346;-70
2021/03/28 09:53:04;;;;;;;5.63;1.10;;;;;;;22.31;28.12;100199.59;5012133;28;20045;-70
2021/03/28 09:55:58;;;;;;;2.97;1.20;;;;;;;23.84;27.02;100188.31;5004008;28;20104;-70
2021/03/28 09:59:02;;;;;;;4.95;1.23;;;;;;;23.12;26.96;100194.69;4994679;28;20471;-71
2021/03/28 10:01:55;;;;;;;4.38;1.20;;;;;;;23.38;26.67;100193.16;4999501;28;20108;-71
2021/03/28 10:04:45;;;;;;;4.53;1.50;;;;;;;23.96;26.33;100182.63;5005740;28;20037;-72
2021/03/28 10:07:13;;;;;;;4.80;1.38;;;;;;;24.18;26.77;100179.84;4990662;28;20093;-72
2021/03/28 10:09:38;;;;;;;5.32;1.70;;;;;;;23.92;27.15;100177.88;4986518;28;20133;-72
2021/03/28 10:12:21;;;;;;;7.80;1.63;;;;;;;24.22;27.30;100169.94;4983926;28;20109;-73
2021/03/28 10:15:11;;;;;;;5.35;1.65;;;;;;;22.97;28.03;100170.44;4970419;28;20274;-73
2021/03/28 10:17:47;;;;;;;3.67;1.38;;;;;;;25.43;25.37;100172.38;4979559;28;20031;-72
2021/03/28 10:20:22;;;;;;;5.63;1.38;;;;;;;25.36;24.91;100167.91;4976783;28;20106;-72
2021/03/28 10:22:57;;;;;;;7.18;1.50;;;;;;;26.58;23.65;100168.66;4988221;28;20042;-73
2021/03/28 10:25:25;;;;;;;3.78;1.02;;;;;;;23.45;25.25;100159.84;4988524;28;20026;-72
2021/03/28 10:28:26;;;;;;;5.25;1.20;;;;;;;24.47;24.52;100154.72;4982055;28;20081;-72
2021/03/28 10:31:22;;;;;;;5.78;1.60;;;;;;;24.81;23.92;100152.56;4987542;28;20144;-72
2021/03/28 10:34:08;;;;;;;10.02;4.78;;;;;;;25.18;24.38;100142.56;4983589;28;20084;-72
2021/03/28 10:36:45;;;;;;;5.70;1.45;;;;;;;25.10;24.78;100161.34;4982306;28;20054;-72
2021/03/28 10:39:45;;;;;;;5.15;1.17;;;;;;;24.77;23.50;100142.25;4981642;28;20038;-73
2021/03/28 10:42:44;;;;;;;5.40;1.33;;;;;;;22.67;25.72;100147.84;4992970;28;20038;-71
2021/03/28 10:45:24;;;;;;;4.57;1.33;;;;;;;21.67;26.83;100150.09;4987789;28;20114;-71
2021/03/28 10:48:44;;;;;;;8.75;3.22;;;;;;;20.43;27.99;100147.38;4990928;28;20700;-71
2021/03/28 10:51:15;;;;;;;5.25;1.00;;;;;;;21.13;27.22;100147.47;4917634;29;20658;-71
2021/03/28 10:54:15;;;;;;;5.18;2.15;;;;;;;21.49;27.32;100134.56;4916855;29;20110;-71
2021/03/28 10:57:17;;;;;;;4.57;1.55;;;;;;;23.35;25.39;100124.63;4964082;28;20045;-71
2021/03/28 10:59:54;;;;;;;5.47;1.23;;;;;;;23.21;25.43;100128.84;4985707;28;20034;-71
2021/03/28 11:02:38;;;;;;;2.97;1.67;;;;;;;21.84;26.56;100128.09;4991967;28;20033;-71
2021/03/28 11:05:33;;;;;;;3.83;1.70;;;;;;;23.28;25.17;100121.22;4992253;28;20022;-71
2021/03/28 11:07:58;;;;;;;2.80;1.20;;;;;;;23.89;24.43;100115.66;4991723;28;20443;-71
2021/03/28 11:10:32;;;;;;;4.90;1.40;;;;;;;23.34;26.09;100114.69;4991177;28;20034;-71
2021/03/28 11:13:01;;;;;;;3.35;2.00;;;;;;;23.98;25.38;100111.34;4998653;28;20305;-72
2021/03/28 11:15:50;;;;;;;5.35;1.40;;;;;;;24.43;25.67;100117.59;4979417;28;20054;-73
2021/03/28 11:18:49;;;;;;;2.97;1.20;;;;;;;24.14;24.95;100106.81;4995442;28;20034;-73
2021/03/28 11:21:51;;;;;;;4.97;1.20;;;;;;;22.05;25.70;100110.03;4989915;28;20157;-72
2021/03/28 11:24:35;;;;;;;4.22;1.05;;;;;;;23.97;24.24;100090.31;4992244;28;20030;-72
2021/03/28 11:27:03;;;;;;;5.28;1.30;;;;;;;23.71;25.12;100099.38;4984314;28;20084;-72
2021/03/28 11:29:43;;;;;;;3.33;1.48;;;;;;;24.08;24.92;100090.41;4999991;28;20041;-72
2021/03/28 11:32:47;;;;;;;3.95;1.23;;;;;;;24.71;24.86;100078.56;4987526;28;20117;-72
2021/03/28 11:35:34;;;;;;;4.85;1.55;;;;;;;24.70;24.85;100076.03;4989906;28;20038;-74
2021/03/28 11:38:17;;;;;;;4.28;1.75;;;;;;;25.52;23.84;100077.38;4975274;28;20045;-73
2021/03/28 11:40:46;;;;;;;4.43;1.70;;;;;;;24.57;23.93;100066.25;4988097;28;20031;-72
2021/03/28 11:43:11;;;;;;;4.78;1.30;;;;;;;23.24;24.61;100061.22;4973192;28;20030;-73
2021/03/28 11:45:38;;;;;;;5.57;2.20;;;;;;;23.38;24.77;100057.81;4987821;28;20088;-73
2021/03/28 11:48:40;;;;;;;2.85;1.27;;;;;;;24.16;23.49;100054.84;4991345;28;20368;-73
2021/03/28 11:51:17;;;;;;;4.13;1.50;;;;;;;23.35;24.80;100065.81;5000808;28;20117;-73
2021/03/28 11:53:43;;;;;;;3.15;1.17;;;;;;;23.29;25.20;100067.66;4987688;28;20414;-73
2021/03/28 11:56:35;;;;;;;4.10;1.52;;;;;;;23.31;24.60;100062.69;4979490;28;20562;-73
2021/03/28 11:59:04;;;;;;;5.40;1.40;;;;;;;23.35;24.94;100057.53;4990551;28;20093;-73
2021/03/28 12:01:48;;;;;;;;;;;;;;;23.26;25.33;100054.34;4983581;28;20023;-72
2021/03/28 12:04:38;;;;;;;4.68;1.45;;;;;;;24.00;24.81;100047.50;4972895;28;19917;-72
2021/03/28 12:07:33;;;;;;;3.28;0.93;;;;;;;23.18;25.83;100050.09;4991371;28;20034;-71
2021/03/28 12:10:04;;;;;;;4.47;1.50;;;;;;;22.32;26.71;100060.66;4985434;28;20085;-73
2021/03/28 12:12:40;;;;;;;6.18;1.35;;;;;;;23.41;25.44;100057.31;4972209;28;20514;-72
2021/03/28 12:15:43;;;;;;;4.40;1.77;;;;;;;22.99;26.04;100054.28;4987768;28;20034;-74
2021/03/28 12:18:21;;;;;;;6.18;1.40;;;;;;;24.41;24.46;100051.44;4990159;28;20440;-73
2021/03/28 12:21:06;;;;;;;4.35;1.20;;;;;;;23.07;25.34;100048.31;5005811;28;20554;-73
2021/03/28 12:23:50;;;;;;;7.45;1.90;;;;;;;23.06;25.82;100045.81;4961480;28;20057;-72
2021/03/28 12:26:25;;;;;;;4.13;1.30;;;;;;;23.13;25.71;100044.53;4991076;28;20026;-73
2021/03/28 12:28:56;;;;;;;3.10;1.10;;;;;;;23.36;25.56;100034.31;4975410;28;20492;-73
2021/03/28 12:31:27;;;;;;;5.75;1.40;;;;;;;24.39;24.40;100025.16;4987582;28;20358;-72
2021/03/28 12:33:56;;;;;;;4.63;1.23;;;;;;;25.23;24.12;100029.03;4990299;28;20053;-72
2021/03/28 12:36:23;;;;;;;2.58;1.02;;;;;;;24.57;24.15;100030.28;4975640;28;20030;-73
2021/03/28 12:38:52;;;;;;;5.68;1.80;;;;;;;25.04;24.74;100023.09;4986190;28;20038;-72
2021/03/28 12:41:31;;;;;;;3.72;1.30;;;;;;;24.99;25.00;100015.59;4990749;28;20026;-71
2021/03/28 12:44:06;;;;;;;6.38;1.08;;;;;;;22.65;26.74;100012.09;4991015;28;20034;-73
2021/03/28 12:46:31;;;;;;;6.78;1.10;;;;;;;24.30;25.00;100021.22;5003239;28;20033;-73
2021/03/28 12:49:08;;;;;;;5.57;1.30;;;;;;;23.37;26.40;100023.03;4992284;28;20431;-74
2021/03/28 12:51:36;;;;;;;4.75;1.25;;;;;;;24.12;26.56;100003.91;4988533;28;20293;-74
2021/03/28 12:54:12;;;;;;;5.38;1.58;;;;;;;23.96;25.72;100014.00;4991329;28;20041;-73
2021/03/28 12:56:38;;;;;;;3.97;0.90;;;;;;;24.18;25.64;100002.03;4990857;28;20082;-73